sensor_id;sensor_type;location;lat;lon;timestamp;P1;durP1;ratioP1;P2;durP2;ratioP2
22677;SDS011;26259;50.214;18.620;2022-10-13T00:01:20;254.53;;;139.20;;
22677;SDS011;26259;50.214;18.620;2022-10-13T00:03:47;257.40;;;135.97;;
22677;SDS011;26259;50.214;18.620;2022-10-13T00:06:13;272.83;;;144.40;;
22677;SDS011;26259;50.214;18.620;2022-10-13T00:08:42;245.07;;;135.87;;
22677;SDS011;26259;50.214;18.620;2022-10-13T00:11:13;249.73;;;139.73;;
22677;SDS011;26259;50.214;18.620;2022-10-13T00:13:46;246.03;;;134.77;;
22677;SDS011;26259;50.214;18.620;2022-10-13T00:16:13;235.27;;;131.13;;
22677;SDS011;26259;50.214;18.620;2022-10-13T00:18:41;245.63;;;133.30;;
22677;SDS011;26259;50.214;18.620;2022-10-13T00:21:07;250.13;;;135.57;;
22677;SDS011;26259;50.214;18.620;2022-10-13T00:23:34;240.17;;;131.40;;
22677;SDS011;26259;50.214;18.620;2022-10-13T00:26:01;237.10;;;128.10;;
22677;SDS011;26259;50.214;18.620;2022-10-13T00:28:29;221.80;;;124.13;;
22677;SDS011;26259;50.214;18.620;2022-10-13T00:30:55;246.90;;;133.80;;
22677;SDS011;26259;50.214;18.620;2022-10-13T00:33:21;232.87;;;129.70;;
22677;SDS011;26259;50.214;18.620;2022-10-13T00:35:47;241.63;;;133.93;;
22677;SDS011;26259;50.214;18.620;2022-10-13T00:38:13;256.80;;;137.17;;
22677;SDS011;26259;50.214;18.620;2022-10-13T00:40:50;245.20;;;131.40;;
22677;SDS011;26259;50.214;18.620;2022-10-13T00:43:22;266.20;;;137.37;;
22677;SDS011;26259;50.214;18.620;2022-10-13T00:45:50;288.00;;;146.43;;
22677;SDS011;26259;50.214;18.620;2022-10-13T00:48:18;237.80;;;127.47;;
22677;SDS011;26259;50.214;18.620;2022-10-13T00:50:46;241.50;;;127.53;;
22677;SDS011;26259;50.214;18.620;2022-10-13T00:53:13;246.03;;;129.60;;
22677;SDS011;26259;50.214;18.620;2022-10-13T00:55:40;232.17;;;126.50;;
22677;SDS011;26259;50.214;18.620;2022-10-13T00:58:08;223.00;;;121.47;;
22677;SDS011;26259;50.214;18.620;2022-10-13T01:00:36;221.23;;;115.73;;
22677;SDS011;26259;50.214;18.620;2022-10-13T01:03:02;218.27;;;116.63;;
22677;SDS011;26259;50.214;18.620;2022-10-13T01:05:28;225.10;;;121.20;;
22677;SDS011;26259;50.214;18.620;2022-10-13T01:07:55;215.07;;;115.50;;
22677;SDS011;26259;50.214;18.620;2022-10-13T01:13:03;210.93;;;111.00;;
22677;SDS011;26259;50.214;18.620;2022-10-13T01:15:52;200.40;;;108.60;;
22677;SDS011;26259;50.214;18.620;2022-10-13T01:18:52;213.67;;;110.33;;
22677;SDS011;26259;50.214;18.620;2022-10-13T01:21:29;190.07;;;104.30;;
22677;SDS011;26259;50.214;18.620;2022-10-13T01:29:48;176.97;;;98.60;;
22677;SDS011;26259;50.214;18.620;2022-10-13T01:32:28;188.77;;;102.33;;
22677;SDS011;26259;50.214;18.620;2022-10-13T01:35:08;194.47;;;103.67;;
22677;SDS011;26259;50.214;18.620;2022-10-13T01:40:24;202.60;;;105.53;;
22677;SDS011;26259;50.214;18.620;2022-10-13T01:48:24;191.17;;;106.37;;
22677;SDS011;26259;50.214;18.620;2022-10-13T01:50:51;199.70;;;105.30;;
22677;SDS011;26259;50.214;18.620;2022-10-13T01:53:19;185.63;;;103.40;;
22677;SDS011;26259;50.214;18.620;2022-10-13T01:55:52;185.03;;;100.90;;
22677;SDS011;26259;50.214;18.620;2022-10-13T01:58:20;185.60;;;103.47;;
22677;SDS011;26259;50.214;18.620;2022-10-13T02:01:00;174.73;;;98.50;;
22677;SDS011;26259;50.214;18.620;2022-10-13T02:03:35;190.93;;;105.80;;
22677;SDS011;26259;50.214;18.620;2022-10-13T02:06:20;193.73;;;107.93;;
22677;SDS011;26259;50.214;18.620;2022-10-13T02:08:54;177.40;;;99.13;;
22677;SDS011;26259;50.214;18.620;2022-10-13T02:11:30;188.10;;;104.43;;
22677;SDS011;26259;50.214;18.620;2022-10-13T02:13:58;203.83;;;112.23;;
22677;SDS011;26259;50.214;18.620;2022-10-13T02:16:36;226.47;;;123.90;;
22677;SDS011;26259;50.214;18.620;2022-10-13T02:19:05;220.17;;;117.97;;
22677;SDS011;26259;50.214;18.620;2022-10-13T02:21:33;215.33;;;118.27;;
22677;SDS011;26259;50.214;18.620;2022-10-13T02:24:00;202.97;;;118.63;;
22677;SDS011;26259;50.214;18.620;2022-10-13T02:26:28;221.27;;;117.83;;
22677;SDS011;26259;50.214;18.620;2022-10-13T02:28:54;223.87;;;121.23;;
22677;SDS011;26259;50.214;18.620;2022-10-13T02:31:20;215.97;;;117.73;;
22677;SDS011;26259;50.214;18.620;2022-10-13T02:33:46;201.20;;;112.53;;
22677;SDS011;26259;50.214;18.620;2022-10-13T02:36:11;217.13;;;115.23;;
22677;SDS011;26259;50.214;18.620;2022-10-13T02:38:37;205.30;;;116.30;;
22677;SDS011;26259;50.214;18.620;2022-10-13T02:41:02;200.40;;;112.60;;
22677;SDS011;26259;50.214;18.620;2022-10-13T02:43:28;216.53;;;115.17;;
22677;SDS011;26259;50.214;18.620;2022-10-13T02:45:54;204.17;;;114.03;;
22677;SDS011;26259;50.214;18.620;2022-10-13T02:48:19;199.20;;;109.00;;
22677;SDS011;26259;50.214;18.620;2022-10-13T02:50:45;187.57;;;106.00;;
22677;SDS011;26259;50.214;18.620;2022-10-13T02:53:11;170.73;;;99.97;;
22677;SDS011;26259;50.214;18.620;2022-10-13T02:55:37;187.67;;;102.20;;
22677;SDS011;26259;50.214;18.620;2022-10-13T02:58:03;184.70;;;101.03;;
22677;SDS011;26259;50.214;18.620;2022-10-13T03:00:28;172.97;;;100.07;;
22677;SDS011;26259;50.214;18.620;2022-10-13T03:02:54;183.83;;;99.87;;
22677;SDS011;26259;50.214;18.620;2022-10-13T03:05:20;182.17;;;101.23;;
22677;SDS011;26259;50.214;18.620;2022-10-13T03:07:46;179.60;;;99.03;;
22677;SDS011;26259;50.214;18.620;2022-10-13T03:10:11;170.83;;;95.73;;
22677;SDS011;26259;50.214;18.620;2022-10-13T03:12:37;189.53;;;104.10;;
22677;SDS011;26259;50.214;18.620;2022-10-13T03:15:02;189.60;;;105.93;;
22677;SDS011;26259;50.214;18.620;2022-10-13T03:17:28;189.60;;;103.93;;
22677;SDS011;26259;50.214;18.620;2022-10-13T03:19:54;182.70;;;102.10;;
22677;SDS011;26259;50.214;18.620;2022-10-13T03:22:19;181.40;;;100.10;;
22677;SDS011;26259;50.214;18.620;2022-10-13T03:24:45;169.33;;;93.67;;
22677;SDS011;26259;50.214;18.620;2022-10-13T03:27:10;169.20;;;94.17;;
22677;SDS011;26259;50.214;18.620;2022-10-13T03:29:36;165.30;;;91.83;;
22677;SDS011;26259;50.214;18.620;2022-10-13T03:32:02;160.67;;;92.57;;
22677;SDS011;26259;50.214;18.620;2022-10-13T03:34:28;185.87;;;101.97;;
22677;SDS011;26259;50.214;18.620;2022-10-13T03:36:53;173.40;;;96.57;;
22677;SDS011;26259;50.214;18.620;2022-10-13T03:39:19;177.67;;;97.90;;
22677;SDS011;26259;50.214;18.620;2022-10-13T03:41:46;182.57;;;98.87;;
22677;SDS011;26259;50.214;18.620;2022-10-13T03:44:11;188.50;;;101.33;;
22677;SDS011;26259;50.214;18.620;2022-10-13T03:46:37;191.53;;;100.90;;
22677;SDS011;26259;50.214;18.620;2022-10-13T03:49:03;186.30;;;104.63;;
22677;SDS011;26259;50.214;18.620;2022-10-13T03:51:29;172.83;;;97.60;;
22677;SDS011;26259;50.214;18.620;2022-10-13T03:53:54;188.97;;;103.00;;
22677;SDS011;26259;50.214;18.620;2022-10-13T03:56:22;183.30;;;98.93;;
22677;SDS011;26259;50.214;18.620;2022-10-13T03:58:49;176.70;;;102.03;;
22677;SDS011;26259;50.214;18.620;2022-10-13T04:01:18;221.40;;;118.60;;
22677;SDS011;26259;50.214;18.620;2022-10-13T04:03:45;230.00;;;120.37;;
22677;SDS011;26259;50.214;18.620;2022-10-13T04:06:10;200.53;;;109.73;;
22677;SDS011;26259;50.214;18.620;2022-10-13T04:08:36;190.10;;;107.33;;
22677;SDS011;26259;50.214;18.620;2022-10-13T04:11:06;227.37;;;121.90;;
22677;SDS011;26259;50.214;18.620;2022-10-13T04:13:33;212.93;;;114.83;;
22677;SDS011;26259;50.214;18.620;2022-10-13T04:16:05;213.43;;;115.70;;
22677;SDS011;26259;50.214;18.620;2022-10-13T04:18:39;194.47;;;106.23;;
22677;SDS011;26259;50.214;18.620;2022-10-13T04:21:06;199.70;;;110.63;;
22677;SDS011;26259;50.214;18.620;2022-10-13T04:23:34;192.50;;;103.00;;
22677;SDS011;26259;50.214;18.620;2022-10-13T04:26:00;185.67;;;104.27;;
22677;SDS011;26259;50.214;18.620;2022-10-13T04:28:26;177.27;;;101.70;;
22677;SDS011;26259;50.214;18.620;2022-10-13T04:30:51;185.67;;;102.83;;
22677;SDS011;26259;50.214;18.620;2022-10-13T04:33:17;190.53;;;99.83;;
22677;SDS011;26259;50.214;18.620;2022-10-13T04:35:42;185.50;;;104.83;;
22677;SDS011;26259;50.214;18.620;2022-10-13T04:38:08;161.67;;;95.77;;
22677;SDS011;26259;50.214;18.620;2022-10-13T04:40:33;198.03;;;106.87;;
22677;SDS011;26259;50.214;18.620;2022-10-13T04:42:59;201.90;;;108.70;;
22677;SDS011;26259;50.214;18.620;2022-10-13T04:45:25;181.47;;;99.60;;
22677;SDS011;26259;50.214;18.620;2022-10-13T04:47:51;177.27;;;99.10;;
22677;SDS011;26259;50.214;18.620;2022-10-13T04:50:17;173.43;;;100.07;;
22677;SDS011;26259;50.214;18.620;2022-10-13T04:52:42;174.93;;;96.93;;
22677;SDS011;26259;50.214;18.620;2022-10-13T04:55:08;154.90;;;90.87;;
22677;SDS011;26259;50.214;18.620;2022-10-13T04:57:34;169.20;;;91.87;;
22677;SDS011;26259;50.214;18.620;2022-10-13T05:00:00;159.93;;;89.83;;
22677;SDS011;26259;50.214;18.620;2022-10-13T05:02:25;166.13;;;90.17;;
22677;SDS011;26259;50.214;18.620;2022-10-13T05:04:51;145.23;;;86.07;;
22677;SDS011;26259;50.214;18.620;2022-10-13T05:07:17;159.57;;;89.47;;
22677;SDS011;26259;50.214;18.620;2022-10-13T05:09:42;171.53;;;88.03;;
22677;SDS011;26259;50.214;18.620;2022-10-13T05:12:08;162.47;;;87.97;;
22677;SDS011;26259;50.214;18.620;2022-10-13T05:14:33;158.07;;;87.27;;
22677;SDS011;26259;50.214;18.620;2022-10-13T05:16:59;156.50;;;85.20;;
22677;SDS011;26259;50.214;18.620;2022-10-13T05:19:26;148.97;;;85.73;;
22677;SDS011;26259;50.214;18.620;2022-10-13T05:21:51;138.70;;;80.60;;
22677;SDS011;26259;50.214;18.620;2022-10-13T05:24:17;151.33;;;87.30;;
22677;SDS011;26259;50.214;18.620;2022-10-13T05:26:44;170.53;;;94.17;;
22677;SDS011;26259;50.214;18.620;2022-10-13T05:29:10;179.53;;;99.10;;
22677;SDS011;26259;50.214;18.620;2022-10-13T05:31:35;170.03;;;97.53;;
22677;SDS011;26259;50.214;18.620;2022-10-13T05:34:02;174.53;;;94.87;;
22677;SDS011;26259;50.214;18.620;2022-10-13T05:36:28;163.00;;;93.30;;
22677;SDS011;26259;50.214;18.620;2022-10-13T05:38:57;160.20;;;90.37;;
22677;SDS011;26259;50.214;18.620;2022-10-13T05:41:24;171.87;;;92.83;;
22677;SDS011;26259;50.214;18.620;2022-10-13T05:43:55;171.83;;;92.50;;
22677;SDS011;26259;50.214;18.620;2022-10-13T05:46:24;171.50;;;91.00;;
22677;SDS011;26259;50.214;18.620;2022-10-13T05:48:50;170.07;;;95.33;;
22677;SDS011;26259;50.214;18.620;2022-10-13T05:51:23;178.97;;;99.40;;
22677;SDS011;26259;50.214;18.620;2022-10-13T05:53:57;190.77;;;106.23;;
22677;SDS011;26259;50.214;18.620;2022-10-13T05:56:50;191.87;;;109.00;;
22677;SDS011;26259;50.214;18.620;2022-10-13T05:59:21;206.60;;;120.50;;
22677;SDS011;26259;50.214;18.620;2022-10-13T06:01:48;187.70;;;107.10;;
22677;SDS011;26259;50.214;18.620;2022-10-13T06:04:19;182.20;;;103.53;;
22677;SDS011;26259;50.214;18.620;2022-10-13T06:06:49;181.23;;;99.50;;
22677;SDS011;26259;50.214;18.620;2022-10-13T06:09:14;162.93;;;93.53;;
22677;SDS011;26259;50.214;18.620;2022-10-13T06:11:41;184.03;;;104.43;;
22677;SDS011;26259;50.214;18.620;2022-10-13T06:14:06;186.23;;;104.40;;
22677;SDS011;26259;50.214;18.620;2022-10-13T06:16:33;181.40;;;101.27;;
22677;SDS011;26259;50.214;18.620;2022-10-13T06:19:00;172.50;;;99.20;;
22677;SDS011;26259;50.214;18.620;2022-10-13T06:21:26;181.40;;;100.37;;
22677;SDS011;26259;50.214;18.620;2022-10-13T06:23:52;168.90;;;95.13;;
22677;SDS011;26259;50.214;18.620;2022-10-13T06:26:17;172.97;;;99.27;;
22677;SDS011;26259;50.214;18.620;2022-10-13T06:28:43;182.60;;;101.50;;
22677;SDS011;26259;50.214;18.620;2022-10-13T06:31:08;169.83;;;99.60;;
22677;SDS011;26259;50.214;18.620;2022-10-13T06:33:34;171.97;;;101.67;;
22677;SDS011;26259;50.214;18.620;2022-10-13T06:36:03;188.33;;;104.83;;
22677;SDS011;26259;50.214;18.620;2022-10-13T06:38:29;186.87;;;106.53;;
22677;SDS011;26259;50.214;18.620;2022-10-13T06:40:59;206.93;;;114.90;;
22677;SDS011;26259;50.214;18.620;2022-10-13T06:43:25;223.30;;;129.50;;
22677;SDS011;26259;50.214;18.620;2022-10-13T06:45:51;231.67;;;128.60;;
22677;SDS011;26259;50.214;18.620;2022-10-13T06:48:16;198.73;;;112.23;;
22677;SDS011;26259;50.214;18.620;2022-10-13T06:50:42;197.37;;;113.73;;
22677;SDS011;26259;50.214;18.620;2022-10-13T06:53:07;227.75;;;144.73;;
22677;SDS011;26259;50.214;18.620;2022-10-13T06:55:33;248.23;;;144.27;;
22677;SDS011;26259;50.214;18.620;2022-10-13T06:57:58;289.97;;;162.70;;
22677;SDS011;26259;50.214;18.620;2022-10-13T07:00:24;340.23;;;186.23;;
22677;SDS011;26259;50.214;18.620;2022-10-13T07:02:50;434.90;;;277.23;;
22677;SDS011;26259;50.214;18.620;2022-10-13T07:05:16;258.83;;;158.20;;
22677;SDS011;26259;50.214;18.620;2022-10-13T07:07:42;247.43;;;146.73;;
22677;SDS011;26259;50.214;18.620;2022-10-13T07:10:08;222.67;;;134.50;;
22677;SDS011;26259;50.214;18.620;2022-10-13T07:12:34;197.87;;;120.90;;
22677;SDS011;26259;50.214;18.620;2022-10-13T07:14:59;179.00;;;113.53;;
22677;SDS011;26259;50.214;18.620;2022-10-13T07:17:25;179.93;;;108.87;;
22677;SDS011;26259;50.214;18.620;2022-10-13T07:19:50;161.30;;;102.20;;
22677;SDS011;26259;50.214;18.620;2022-10-13T07:22:16;164.83;;;102.13;;
22677;SDS011;26259;50.214;18.620;2022-10-13T07:24:42;164.97;;;101.40;;
22677;SDS011;26259;50.214;18.620;2022-10-13T07:27:07;160.97;;;101.77;;
22677;SDS011;26259;50.214;18.620;2022-10-13T07:29:33;148.10;;;98.73;;
22677;SDS011;26259;50.214;18.620;2022-10-13T07:31:58;158.47;;;101.23;;
22677;SDS011;26259;50.214;18.620;2022-10-13T07:34:24;147.50;;;96.87;;
22677;SDS011;26259;50.214;18.620;2022-10-13T07:36:49;162.00;;;100.57;;
22677;SDS011;26259;50.214;18.620;2022-10-13T07:39:15;141.10;;;91.40;;
22677;SDS011;26259;50.214;18.620;2022-10-13T07:41:40;130.53;;;87.97;;
22677;SDS011;26259;50.214;18.620;2022-10-13T07:44:06;126.40;;;85.00;;
22677;SDS011;26259;50.214;18.620;2022-10-13T07:46:31;127.00;;;82.50;;
22677;SDS011;26259;50.214;18.620;2022-10-13T07:48:57;140.87;;;102.37;;
22677;SDS011;26259;50.214;18.620;2022-10-13T07:51:22;115.33;;;79.63;;
22677;SDS011;26259;50.214;18.620;2022-10-13T07:53:48;110.70;;;74.33;;
22677;SDS011;26259;50.214;18.620;2022-10-13T07:56:14;96.37;;;68.00;;
22677;SDS011;26259;50.214;18.620;2022-10-13T07:58:44;95.10;;;65.53;;
22677;SDS011;26259;50.214;18.620;2022-10-13T08:01:11;98.87;;;66.57;;
22677;SDS011;26259;50.214;18.620;2022-10-13T08:03:38;100.33;;;65.70;;
22677;SDS011;26259;50.214;18.620;2022-10-13T08:06:05;87.10;;;58.83;;
22677;SDS011;26259;50.214;18.620;2022-10-13T08:08:33;84.00;;;56.37;;
22677;SDS011;26259;50.214;18.620;2022-10-13T08:11:03;80.27;;;55.20;;
22677;SDS011;26259;50.214;18.620;2022-10-13T08:13:30;71.60;;;50.43;;
22677;SDS011;26259;50.214;18.620;2022-10-13T08:15:58;65.83;;;47.80;;
22677;SDS011;26259;50.214;18.620;2022-10-13T08:18:25;65.17;;;45.53;;
22677;SDS011;26259;50.214;18.620;2022-10-13T08:20:51;65.80;;;45.63;;
22677;SDS011;26259;50.214;18.620;2022-10-13T08:23:16;55.40;;;38.63;;
22677;SDS011;26259;50.214;18.620;2022-10-13T08:25:42;60.70;;;40.13;;
22677;SDS011;26259;50.214;18.620;2022-10-13T08:28:14;65.67;;;43.43;;
22677;SDS011;26259;50.214;18.620;2022-10-13T08:30:43;64.20;;;45.43;;
22677;SDS011;26259;50.214;18.620;2022-10-13T08:33:08;56.00;;;37.40;;
22677;SDS011;26259;50.214;18.620;2022-10-13T08:35:34;54.63;;;36.80;;
22677;SDS011;26259;50.214;18.620;2022-10-13T08:37:59;52.83;;;35.03;;
22677;SDS011;26259;50.214;18.620;2022-10-13T08:40:25;56.57;;;36.20;;
22677;SDS011;26259;50.214;18.620;2022-10-13T08:42:50;52.00;;;36.47;;
22677;SDS011;26259;50.214;18.620;2022-10-13T08:45:24;56.33;;;34.20;;
22677;SDS011;26259;50.214;18.620;2022-10-13T08:47:56;45.30;;;31.00;;
22677;SDS011;26259;50.214;18.620;2022-10-13T08:50:35;43.30;;;29.70;;
22677;SDS011;26259;50.214;18.620;2022-10-13T08:53:08;44.90;;;30.63;;
22677;SDS011;26259;50.214;18.620;2022-10-13T08:55:53;42.73;;;29.23;;
22677;SDS011;26259;50.214;18.620;2022-10-13T08:58:40;41.43;;;27.90;;
22677;SDS011;26259;50.214;18.620;2022-10-13T09:03:43;39.90;;;25.73;;
22677;SDS011;26259;50.214;18.620;2022-10-13T09:09:09;43.40;;;25.53;;
22677;SDS011;26259;50.214;18.620;2022-10-13T09:11:37;34.33;;;23.47;;
22677;SDS011;26259;50.214;18.620;2022-10-13T09:14:08;37.33;;;22.53;;
22677;SDS011;26259;50.214;18.620;2022-10-13T09:16:40;32.83;;;20.90;;
22677;SDS011;26259;50.214;18.620;2022-10-13T09:19:11;31.57;;;21.30;;
22677;SDS011;26259;50.214;18.620;2022-10-13T09:24:45;35.30;;;20.30;;
22677;SDS011;26259;50.214;18.620;2022-10-13T09:27:11;28.10;;;18.90;;
22677;SDS011;26259;50.214;18.620;2022-10-13T09:29:40;24.70;;;18.47;;
22677;SDS011;26259;50.214;18.620;2022-10-13T09:32:11;26.97;;;17.70;;
22677;SDS011;26259;50.214;18.620;2022-10-13T09:34:42;28.87;;;19.30;;
22677;SDS011;26259;50.214;18.620;2022-10-13T09:37:19;28.40;;;17.87;;
22677;SDS011;26259;50.214;18.620;2022-10-13T09:39:58;33.03;;;18.17;;
22677;SDS011;26259;50.214;18.620;2022-10-13T09:42:26;26.00;;;16.47;;
22677;SDS011;26259;50.214;18.620;2022-10-13T09:44:55;26.40;;;17.90;;
22677;SDS011;26259;50.214;18.620;2022-10-13T09:47:41;31.63;;;17.33;;
22677;SDS011;26259;50.214;18.620;2022-10-13T09:50:34;27.70;;;16.83;;
22677;SDS011;26259;50.214;18.620;2022-10-13T09:55:41;26.07;;;16.30;;
22677;SDS011;26259;50.214;18.620;2022-10-13T09:58:15;31.10;;;16.13;;
22677;SDS011;26259;50.214;18.620;2022-10-13T10:00:45;29.40;;;16.40;;
22677;SDS011;26259;50.214;18.620;2022-10-13T10:03:18;25.43;;;15.20;;
22677;SDS011;26259;50.214;18.620;2022-10-13T10:05:54;22.47;;;14.30;;
22677;SDS011;26259;50.214;18.620;2022-10-13T10:11:10;23.30;;;14.50;;
22677;SDS011;26259;50.214;18.620;2022-10-13T10:13:39;20.97;;;13.90;;
22677;SDS011;26259;50.214;18.620;2022-10-13T10:16:06;21.03;;;14.00;;
22677;SDS011;26259;50.214;18.620;2022-10-13T10:18:56;21.40;;;14.07;;
22677;SDS011;26259;50.214;18.620;2022-10-13T10:24:11;21.43;;;12.67;;
22677;SDS011;26259;50.214;18.620;2022-10-13T10:26:56;22.00;;;13.10;;
22677;SDS011;26259;50.214;18.620;2022-10-13T10:34:44;23.87;;;12.90;;
22677;SDS011;26259;50.214;18.620;2022-10-13T10:37:18;20.87;;;13.90;;
22677;SDS011;26259;50.214;18.620;2022-10-13T10:40:13;24.57;;;13.00;;
22677;SDS011;26259;50.214;18.620;2022-10-13T10:45:41;23.73;;;13.03;;
22677;SDS011;26259;50.214;18.620;2022-10-13T10:50:43;20.53;;;12.43;;
22677;SDS011;26259;50.214;18.620;2022-10-13T10:53:18;21.93;;;12.67;;
22677;SDS011;26259;50.214;18.620;2022-10-13T10:58:52;19.50;;;12.70;;
22677;SDS011;26259;50.214;18.620;2022-10-13T11:17:37;18.37;;;9.87;;
22677;SDS011;26259;50.214;18.620;2022-10-13T11:23:46;23.57;;;8.33;;
22677;SDS011;26259;50.214;18.620;2022-10-13T11:25:42;13.43;;;8.20;;
22677;SDS011;26259;50.214;18.620;2022-10-13T11:30:55;15.33;;;9.20;;
22677;SDS011;26259;50.214;18.620;2022-10-13T11:38:52;15.03;;;9.13;;
22677;SDS011;26259;50.214;18.620;2022-10-13T11:41:31;21.47;;;10.00;;
22677;SDS011;26259;50.214;18.620;2022-10-13T11:44:12;12.37;;;9.00;;
22677;SDS011;26259;50.214;18.620;2022-10-13T11:46:53;16.43;;;11.67;;
22677;SDS011;26259;50.214;18.620;2022-10-13T11:54:50;18.03;;;12.80;;
22677;SDS011;26259;50.214;18.620;2022-10-13T11:57:19;22.60;;;12.60;;
22677;SDS011;26259;50.214;18.620;2022-10-13T11:59:47;21.90;;;15.07;;
22677;SDS011;26259;50.214;18.620;2022-10-13T12:02:18;25.13;;;14.87;;
22677;SDS011;26259;50.214;18.620;2022-10-13T12:05:00;24.57;;;14.63;;
22677;SDS011;26259;50.214;18.620;2022-10-13T12:07:34;25.53;;;15.20;;
22677;SDS011;26259;50.214;18.620;2022-10-13T12:10:05;23.27;;;15.03;;
22677;SDS011;26259;50.214;18.620;2022-10-13T12:12:38;29.50;;;15.47;;
22677;SDS011;26259;50.214;18.620;2022-10-13T12:15:29;24.30;;;17.27;;
22677;SDS011;26259;50.214;18.620;2022-10-13T12:17:55;28.07;;;18.07;;
22677;SDS011;26259;50.214;18.620;2022-10-13T12:20:22;41.23;;;18.57;;
22677;SDS011;26259;50.214;18.620;2022-10-13T12:22:50;28.97;;;18.47;;
22677;SDS011;26259;50.214;18.620;2022-10-13T12:25:17;25.77;;;18.03;;
22677;SDS011;26259;50.214;18.620;2022-10-13T12:27:46;27.93;;;18.70;;
22677;SDS011;26259;50.214;18.620;2022-10-13T12:32:51;28.97;;;18.67;;
22677;SDS011;26259;50.214;18.620;2022-10-13T12:35:19;26.17;;;17.63;;
22677;SDS011;26259;50.214;18.620;2022-10-13T12:37:47;31.10;;;18.20;;
22677;SDS011;26259;50.214;18.620;2022-10-13T12:40:14;30.63;;;18.10;;
22677;SDS011;26259;50.214;18.620;2022-10-13T12:42:42;30.97;;;19.57;;
22677;SDS011;26259;50.214;18.620;2022-10-13T12:45:21;25.13;;;17.23;;
22677;SDS011;26259;50.214;18.620;2022-10-13T12:47:55;26.63;;;18.53;;
22677;SDS011;26259;50.214;18.620;2022-10-13T12:52:49;28.53;;;19.57;;
22677;SDS011;26259;50.214;18.620;2022-10-13T12:55:18;27.23;;;17.77;;
22677;SDS011;26259;50.214;18.620;2022-10-13T12:57:45;25.87;;;16.37;;
22677;SDS011;26259;50.214;18.620;2022-10-13T13:00:19;25.67;;;17.90;;
22677;SDS011;26259;50.214;18.620;2022-10-13T13:07:58;26.03;;;17.33;;
22677;SDS011;26259;50.214;18.620;2022-10-13T13:10:24;27.77;;;16.43;;
22677;SDS011;26259;50.214;18.620;2022-10-13T13:12:50;31.20;;;18.37;;
22677;SDS011;26259;50.214;18.620;2022-10-13T13:20:51;28.87;;;18.30;;
22677;SDS011;26259;50.214;18.620;2022-10-13T13:23:18;30.63;;;17.07;;
22677;SDS011;26259;50.214;18.620;2022-10-13T13:25:47;26.80;;;16.63;;
22677;SDS011;26259;50.214;18.620;2022-10-13T13:31:15;31.93;;;18.20;;
22677;SDS011;26259;50.214;18.620;2022-10-13T13:33:42;27.17;;;17.37;;
22677;SDS011;26259;50.214;18.620;2022-10-13T13:36:21;27.40;;;16.13;;
22677;SDS011;26259;50.214;18.620;2022-10-13T13:38:48;27.63;;;18.83;;
22677;SDS011;26259;50.214;18.620;2022-10-13T13:41:14;29.40;;;17.97;;
22677;SDS011;26259;50.214;18.620;2022-10-13T13:43:41;26.20;;;19.10;;
22677;SDS011;26259;50.214;18.620;2022-10-13T13:46:09;34.53;;;19.83;;
22677;SDS011;26259;50.214;18.620;2022-10-13T13:48:39;31.17;;;18.00;;
22677;SDS011;26259;50.214;18.620;2022-10-13T13:51:05;34.50;;;18.00;;
22677;SDS011;26259;50.214;18.620;2022-10-13T13:53:32;25.83;;;16.97;;
22677;SDS011;26259;50.214;18.620;2022-10-13T13:55:57;22.83;;;15.57;;
22677;SDS011;26259;50.214;18.620;2022-10-13T13:58:23;26.00;;;16.10;;
22677;SDS011;26259;50.214;18.620;2022-10-13T14:00:48;26.07;;;18.33;;
22677;SDS011;26259;50.214;18.620;2022-10-13T14:03:14;23.73;;;16.60;;
22677;SDS011;26259;50.214;18.620;2022-10-13T14:05:40;28.50;;;17.97;;
22677;SDS011;26259;50.214;18.620;2022-10-13T14:08:06;28.50;;;18.07;;
22677;SDS011;26259;50.214;18.620;2022-10-13T14:10:31;27.03;;;18.20;;
22677;SDS011;26259;50.214;18.620;2022-10-13T14:12:57;31.20;;;18.43;;
22677;SDS011;26259;50.214;18.620;2022-10-13T14:15:24;28.33;;;18.97;;
22677;SDS011;26259;50.214;18.620;2022-10-13T14:17:50;29.43;;;18.73;;
22677;SDS011;26259;50.214;18.620;2022-10-13T14:20:16;27.70;;;18.50;;
22677;SDS011;26259;50.214;18.620;2022-10-13T14:22:42;28.73;;;19.10;;
22677;SDS011;26259;50.214;18.620;2022-10-13T14:25:08;25.30;;;18.60;;
22677;SDS011;26259;50.214;18.620;2022-10-13T14:27:34;29.47;;;19.60;;
22677;SDS011;26259;50.214;18.620;2022-10-13T14:30:00;33.70;;;22.53;;
22677;SDS011;26259;50.214;18.620;2022-10-13T14:32:27;30.57;;;20.43;;
22677;SDS011;26259;50.214;18.620;2022-10-13T14:34:53;28.70;;;19.57;;
22677;SDS011;26259;50.214;18.620;2022-10-13T14:37:18;30.77;;;19.23;;
22677;SDS011;26259;50.214;18.620;2022-10-13T14:39:44;28.57;;;19.07;;
22677;SDS011;26259;50.214;18.620;2022-10-13T14:42:09;28.07;;;20.27;;
22677;SDS011;26259;50.214;18.620;2022-10-13T14:44:35;30.20;;;19.57;;
22677;SDS011;26259;50.214;18.620;2022-10-13T14:47:00;26.87;;;18.37;;
22677;SDS011;26259;50.214;18.620;2022-10-13T14:49:26;31.50;;;19.13;;
22677;SDS011;26259;50.214;18.620;2022-10-13T14:51:51;41.70;;;20.70;;
22677;SDS011;26259;50.214;18.620;2022-10-13T14:54:17;33.03;;;20.60;;
22677;SDS011;26259;50.214;18.620;2022-10-13T14:56:42;28.80;;;19.87;;
22677;SDS011;26259;50.214;18.620;2022-10-13T14:59:08;27.20;;;20.50;;
22677;SDS011;26259;50.214;18.620;2022-10-13T15:01:36;28.63;;;19.40;;
22677;SDS011;26259;50.214;18.620;2022-10-13T15:04:02;33.63;;;21.40;;
22677;SDS011;26259;50.214;18.620;2022-10-13T15:06:28;27.93;;;18.80;;
22677;SDS011;26259;50.214;18.620;2022-10-13T15:08:54;30.03;;;19.13;;
22677;SDS011;26259;50.214;18.620;2022-10-13T15:11:21;32.83;;;18.70;;
22677;SDS011;26259;50.214;18.620;2022-10-13T15:13:47;34.30;;;20.20;;
22677;SDS011;26259;50.214;18.620;2022-10-13T15:16:16;42.40;;;21.77;;
22677;SDS011;26259;50.214;18.620;2022-10-13T15:18:44;43.40;;;23.23;;
22677;SDS011;26259;50.214;18.620;2022-10-13T15:21:10;35.63;;;21.37;;
22677;SDS011;26259;50.214;18.620;2022-10-13T15:23:36;40.43;;;22.67;;
22677;SDS011;26259;50.214;18.620;2022-10-13T15:26:02;37.67;;;23.90;;
22677;SDS011;26259;50.214;18.620;2022-10-13T15:28:38;37.33;;;23.70;;
22677;SDS011;26259;50.214;18.620;2022-10-13T15:31:05;44.93;;;25.83;;
22677;SDS011;26259;50.214;18.620;2022-10-13T15:33:31;56.70;;;29.23;;
22677;SDS011;26259;50.214;18.620;2022-10-13T15:35:56;42.40;;;26.37;;
22677;SDS011;26259;50.214;18.620;2022-10-13T15:38:22;41.87;;;26.27;;
22677;SDS011;26259;50.214;18.620;2022-10-13T15:40:48;47.90;;;28.07;;
22677;SDS011;26259;50.214;18.620;2022-10-13T15:43:15;38.33;;;25.13;;
22677;SDS011;26259;50.214;18.620;2022-10-13T15:45:41;31.30;;;22.80;;